createdAt,value
2023-11-27T00:00:08.478Z,3.50
2023-11-27T00:01:10.229Z,3.70
2023-11-27T00:02:11.838Z,4.47
2023-11-27T00:03:13.384Z,3.50
2023-11-27T00:04:15.069Z,3.37
2023-11-27T00:05:16.535Z,4.30
2023-11-27T00:06:17.912Z,3.67
2023-11-27T00:07:19.456Z,3.57
2023-11-27T00:08:20.926Z,3.80
2023-11-27T00:09:22.531Z,3.50
2023-11-27T00:10:24.030Z,3.83
2023-11-27T00:11:25.411Z,4.13
2023-11-27T00:12:28.079Z,3.80
2023-11-27T00:13:29.556Z,4.37
2023-11-27T00:14:30.924Z,3.70
2023-11-27T00:15:32.324Z,4.00
2023-11-27T00:16:33.764Z,4.00
2023-11-27T00:17:35.191Z,3.53
2023-11-27T00:18:36.582Z,3.93
2023-11-27T00:19:38.042Z,4.03
2023-11-27T00:20:39.413Z,4.40
2023-11-27T00:21:40.911Z,4.23
2023-11-27T00:22:42.425Z,3.70
2023-11-27T00:23:43.822Z,4.40
2023-11-27T00:24:45.291Z,4.00
2023-11-27T00:25:46.657Z,4.40
2023-11-27T00:26:48.069Z,3.77
2023-11-27T00:27:49.514Z,3.90
2023-11-27T00:28:51.190Z,4.20
2023-11-27T00:29:52.677Z,4.17
2023-11-27T00:30:54.376Z,4.40
2023-11-27T00:31:55.986Z,4.37
2023-11-27T00:32:57.448Z,4.23
2023-11-27T00:33:59.408Z,3.97
2023-11-27T00:35:00.833Z,4.13
2023-11-27T00:36:02.348Z,3.93
2023-11-27T00:37:04.789Z,4.30
2023-11-27T00:38:06.248Z,4.33
2023-11-27T00:39:10.571Z,4.10
2023-11-27T00:40:12.097Z,4.47
2023-11-27T00:41:16.005Z,4.70
2023-11-27T00:42:19.301Z,4.47
2023-11-27T00:43:21.235Z,4.50
2023-11-27T00:44:22.878Z,4.10
2023-11-27T00:45:24.325Z,4.10
2023-11-27T00:46:25.936Z,4.03
2023-11-27T00:47:28.454Z,4.53
2023-11-27T00:48:29.914Z,4.03
2023-11-27T00:49:31.650Z,4.00
2023-11-27T00:50:33.121Z,3.80
2023-11-27T00:51:34.561Z,4.00
2023-11-27T00:52:36.141Z,4.27
2023-11-27T00:53:37.713Z,4.20
2023-11-27T00:54:39.204Z,4.30
2023-11-27T00:55:40.729Z,3.77
2023-11-27T00:56:42.225Z,4.57
2023-11-27T00:57:43.726Z,4.00
2023-11-27T00:58:45.172Z,3.90
2023-11-27T00:59:46.553Z,4.43
2023-11-27T01:00:47.948Z,4.30
2023-11-27T01:01:49.455Z,4.13
2023-11-27T01:02:53.696Z,4.00
2023-11-27T01:03:55.301Z,3.70
2023-11-27T01:04:56.823Z,4.30
2023-11-27T01:05:58.519Z,4.10
2023-11-27T01:07:01.082Z,3.83
2023-11-27T01:08:02.547Z,3.60
2023-11-27T01:09:04.028Z,4.23
2023-11-27T01:10:05.672Z,4.30
2023-11-27T01:11:07.513Z,4.30
2023-11-27T01:12:08.977Z,4.33
2023-11-27T01:13:11.313Z,4.67
2023-11-27T01:14:12.783Z,4.10
2023-11-27T01:15:14.798Z,4.50
2023-11-27T01:16:16.301Z,4.53
2023-11-27T01:17:17.874Z,4.37
2023-11-27T01:18:19.256Z,4.03
2023-11-27T01:19:20.762Z,4.27
2023-11-27T01:20:23.332Z,4.80
2023-11-27T01:21:24.841Z,3.80
2023-11-27T01:22:26.265Z,4.80
2023-11-27T01:23:28.135Z,4.90
2023-11-27T01:24:29.577Z,4.47
2023-11-27T01:25:31.051Z,4.43
2023-11-27T01:26:34.232Z,5.50
2023-11-27T01:27:35.699Z,4.77
2023-11-27T01:28:37.472Z,4.20
2023-11-27T01:29:39.496Z,4.40
2023-11-27T01:30:41.856Z,3.93
2023-11-27T01:31:43.642Z,4.07
2023-11-27T01:32:45.404Z,4.27
2023-11-27T01:33:46.938Z,4.13
2023-11-27T01:34:48.330Z,4.47
2023-11-27T01:35:49.740Z,4.53
2023-11-27T01:36:51.126Z,4.30
2023-11-27T01:37:52.834Z,4.50
2023-11-27T01:38:54.792Z,4.70
2023-11-27T01:39:56.233Z,4.30
2023-11-27T01:40:57.634Z,4.43
2023-11-27T01:41:58.981Z,5.13
2023-11-27T01:43:00.939Z,3.80
2023-11-27T01:44:02.742Z,4.70
2023-11-27T01:45:04.260Z,4.17
2023-11-27T01:46:25.863Z,4.27
2023-11-27T01:47:27.374Z,4.40
2023-11-27T01:48:29.326Z,4.00
2023-11-27T01:49:31.178Z,4.03
2023-11-27T01:50:32.761Z,4.23
2023-11-27T01:51:34.251Z,3.97
2023-11-27T01:52:36.424Z,3.93
2023-11-27T01:53:37.859Z,3.93
2023-11-27T01:54:41.560Z,4.00
2023-11-27T01:55:42.970Z,3.87
2023-11-27T01:56:47.570Z,4.27
2023-11-27T01:57:49.124Z,4.57
2023-11-27T01:58:50.888Z,3.83
2023-11-27T01:59:54.504Z,4.20
2023-11-27T02:00:56.035Z,4.10
2023-11-27T02:01:58.524Z,4.87
2023-11-27T02:03:01.201Z,4.63
2023-11-27T02:04:03.816Z,4.20
2023-11-27T02:05:06.029Z,4.40
2023-11-27T02:06:08.227Z,4.63
2023-11-27T02:07:10.466Z,4.80
2023-11-27T02:08:11.873Z,4.80
2023-11-27T02:09:14.933Z,4.60
2023-11-27T02:10:16.836Z,5.00
2023-11-27T02:11:20.374Z,4.50
2023-11-27T02:12:22.167Z,4.30
2023-11-27T02:13:23.564Z,4.77
2023-11-27T02:14:25.847Z,4.80
2023-11-27T02:15:27.352Z,4.53
2023-11-27T02:16:29.453Z,4.67
2023-11-27T02:17:30.925Z,4.40
2023-11-27T02:18:32.555Z,4.50
2023-11-27T02:19:34.445Z,5.00
2023-11-27T02:20:36.075Z,4.43
2023-11-27T02:21:37.669Z,4.40
2023-11-27T02:22:39.143Z,4.43
2023-11-27T02:23:40.626Z,4.60
2023-11-27T02:24:43.645Z,4.80
2023-11-27T02:25:45.635Z,4.33
2023-11-27T02:26:47.104Z,4.10
2023-11-27T02:27:48.557Z,4.30
2023-11-27T02:28:49.960Z,4.57
2023-11-27T02:29:51.384Z,4.20
2023-11-27T02:30:52.868Z,4.87
2023-11-27T02:31:54.604Z,5.10
2023-11-27T02:32:57.037Z,4.30
2023-11-27T02:33:58.573Z,4.60
2023-11-27T02:35:00.317Z,4.40
2023-11-27T02:36:01.872Z,4.73
2023-11-27T02:37:03.304Z,4.63
2023-11-27T02:38:04.863Z,4.63
2023-11-27T02:39:07.811Z,4.50
2023-11-27T02:40:12.051Z,4.40
2023-11-27T02:41:13.618Z,4.60
2023-11-27T02:42:15.086Z,5.00
2023-11-27T02:43:16.577Z,5.00
2023-11-27T02:44:18.286Z,5.00
2023-11-27T02:45:19.663Z,4.57
2023-11-27T02:46:21.674Z,4.60
2023-11-27T02:47:23.225Z,4.57
2023-11-27T02:48:24.807Z,4.73
2023-11-27T02:49:26.343Z,4.73
2023-11-27T02:50:28.320Z,4.93
2023-11-27T02:51:29.732Z,4.80
2023-11-27T02:52:31.868Z,5.07
2023-11-27T02:53:33.782Z,4.80
2023-11-27T02:54:35.279Z,6.20
2023-11-27T02:55:37.339Z,5.10
2023-11-27T02:56:38.832Z,4.77
2023-11-27T02:57:40.246Z,4.87
2023-11-27T02:58:42.250Z,5.80
2023-11-27T02:59:43.647Z,4.93
2023-11-27T03:00:45.123Z,5.10
2023-11-27T03:01:46.851Z,5.30
2023-11-27T03:02:49.062Z,5.43
2023-11-27T03:03:50.595Z,4.90
2023-11-27T03:04:52.004Z,4.83
2023-11-27T03:05:53.378Z,5.20
2023-11-27T03:06:54.827Z,5.37
2023-11-27T03:07:56.486Z,5.50
2023-11-27T03:08:57.925Z,5.30
2023-11-27T03:09:59.524Z,6.13
2023-11-27T03:11:00.915Z,5.70
2023-11-27T03:12:02.312Z,6.27
2023-11-27T03:13:04.032Z,6.77
2023-11-27T03:14:05.567Z,6.50
2023-11-27T03:15:07.158Z,6.90
2023-11-27T03:16:08.798Z,6.80
2023-11-27T03:17:10.500Z,6.70
2023-11-27T03:18:11.971Z,6.53
2023-11-27T03:19:13.466Z,6.30
2023-11-27T03:20:15.001Z,7.40
2023-11-27T03:21:22.202Z,7.03
2023-11-27T03:22:24.755Z,6.63
2023-11-27T03:23:26.374Z,6.83
2023-11-27T03:24:27.855Z,7.23
2023-11-27T03:25:29.324Z,6.70
2023-11-27T03:26:30.790Z,7.20
2023-11-27T03:27:33.174Z,6.87
2023-11-27T03:28:34.615Z,6.70
2023-11-27T03:29:36.568Z,7.13
2023-11-27T03:30:38.358Z,6.60
2023-11-27T03:31:40.047Z,7.20
2023-11-27T03:32:41.528Z,6.77
2023-11-27T03:33:43.048Z,7.07
2023-11-27T03:34:44.806Z,7.27
2023-11-27T03:35:46.174Z,7.33
2023-11-27T03:36:47.557Z,6.93
2023-11-27T03:37:48.956Z,7.33
2023-11-27T03:38:50.391Z,6.70
2023-11-27T03:39:51.901Z,6.70
2023-11-27T03:40:53.323Z,7.37
2023-11-27T03:41:54.711Z,7.00
2023-11-27T03:42:56.253Z,6.50
2023-11-27T03:43:57.670Z,7.07
2023-11-27T03:44:59.641Z,7.00
2023-11-27T03:46:01.372Z,7.00
2023-11-27T03:47:03.081Z,6.60
2023-11-27T03:48:07.447Z,6.97
2023-11-27T03:49:09.090Z,7.00
2023-11-27T03:50:11.897Z,7.40
2023-11-27T03:51:13.404Z,6.80
2023-11-27T03:52:15.170Z,6.67
2023-11-27T03:53:16.597Z,7.27
2023-11-27T03:54:18.615Z,7.00
2023-11-27T03:55:20.970Z,6.70
2023-11-27T03:56:22.474Z,6.33
2023-11-27T03:57:24.093Z,6.00
2023-11-27T03:58:26.080Z,6.73
2023-11-27T03:59:27.487Z,6.53
2023-11-27T04:00:28.944Z,6.57
2023-11-27T04:01:30.441Z,6.30
2023-11-27T04:02:32.028Z,6.03
2023-11-27T04:03:33.576Z,6.57
2023-11-27T04:04:35.032Z,6.33
2023-11-27T04:05:37.366Z,6.67
2023-11-27T04:06:38.796Z,6.40
2023-11-27T04:07:41.056Z,7.30
2023-11-27T04:08:43.314Z,6.77
2023-11-27T04:09:45.129Z,6.53
2023-11-27T04:10:46.534Z,7.13
2023-11-27T04:11:49.786Z,6.60
2023-11-27T04:12:51.341Z,6.37
2023-11-27T04:13:52.809Z,6.33
2023-11-27T04:14:55.028Z,6.90
2023-11-27T04:15:56.535Z,6.97
2023-11-27T04:16:58.210Z,6.83
2023-11-27T04:18:00.086Z,7.07
2023-11-27T04:19:01.742Z,7.10
2023-11-27T04:20:06.811Z,6.53
2023-11-27T04:21:08.687Z,7.03
2023-11-27T04:22:10.609Z,6.70
2023-11-27T04:23:12.117Z,6.97
2023-11-27T04:24:14.114Z,7.73
2023-11-27T04:25:16.974Z,6.87
2023-11-27T04:26:22.734Z,7.27
2023-11-27T04:27:24.717Z,6.80
2023-11-27T04:28:26.331Z,6.50
2023-11-27T04:29:28.099Z,6.23
2023-11-27T04:30:29.903Z,6.80
2023-11-27T04:31:31.478Z,6.93
2023-11-27T04:32:33.922Z,6.70
2023-11-27T04:33:35.902Z,6.40
2023-11-27T04:34:37.393Z,6.47
2023-11-27T04:35:40.285Z,6.47
2023-11-27T04:36:41.782Z,6.10
2023-11-27T04:37:43.265Z,6.23
2023-11-27T04:38:44.726Z,6.73
2023-11-27T04:39:46.256Z,6.97
2023-11-27T04:40:47.636Z,6.30
2023-11-27T04:41:49.167Z,6.60
2023-11-27T04:42:50.643Z,6.73
2023-11-27T04:43:52.760Z,6.73
2023-11-27T04:44:54.378Z,7.03
2023-11-27T04:45:56.495Z,6.70
2023-11-27T04:46:58.158Z,6.73
2023-11-27T04:47:59.723Z,6.00
2023-11-27T04:49:01.710Z,6.63
2023-11-27T04:50:03.356Z,6.37
2023-11-27T04:51:05.033Z,6.00
2023-11-27T04:52:06.646Z,6.33
2023-11-27T04:53:08.169Z,6.70
2023-11-27T04:54:09.550Z,7.23
2023-11-27T04:55:14.305Z,6.57
2023-11-27T04:56:15.859Z,6.57
2023-11-27T04:57:17.346Z,6.30
2023-11-27T04:58:19.514Z,6.80
2023-11-27T04:59:20.967Z,7.03
2023-11-27T05:00:22.916Z,7.40
2023-11-27T05:01:29.549Z,7.07
2023-11-27T05:02:31.198Z,7.00
2023-11-27T05:03:32.907Z,7.40
2023-11-27T05:04:35.094Z,6.43
2023-11-27T05:05:37.794Z,7.20
2023-11-27T05:06:39.181Z,7.23
2023-11-27T05:07:40.830Z,6.70
2023-11-27T05:08:43.170Z,7.97
2023-11-27T05:09:44.874Z,7.17
2023-11-27T05:10:49.640Z,7.50
2023-11-27T05:11:51.542Z,6.93
2023-11-27T05:12:53.020Z,7.53
2023-11-27T05:13:54.446Z,6.70
2023-11-27T05:14:55.923Z,8.37
2023-11-27T05:15:57.399Z,9.03
2023-11-27T05:16:59.140Z,9.00
2023-11-27T05:18:00.850Z,7.90
2023-11-27T05:19:02.517Z,8.07
2023-11-27T05:20:05.060Z,7.63
2023-11-27T05:21:06.544Z,7.00
2023-11-27T05:22:07.959Z,7.43
2023-11-27T05:23:09.359Z,7.90
2023-11-27T05:24:10.832Z,8.17
2023-11-27T05:25:12.289Z,7.57
2023-11-27T05:26:14.435Z,8.50
2023-11-27T05:27:15.946Z,7.87
2023-11-27T05:28:17.446Z,7.97
2023-11-27T05:29:18.878Z,8.40
2023-11-27T05:30:20.379Z,7.60
2023-11-27T05:31:25.244Z,7.37
2023-11-27T05:32:26.815Z,7.90
2023-11-27T05:33:30.070Z,8.20
2023-11-27T05:34:31.537Z,8.30
2023-11-27T05:35:33.039Z,8.60
2023-11-27T05:36:34.540Z,7.97
2023-11-27T05:37:36.091Z,7.40
2023-11-27T05:38:37.502Z,8.30
2023-11-27T05:39:39.072Z,8.90
2023-11-27T05:40:41.712Z,8.90
2023-11-27T05:41:43.183Z,9.17
2023-11-27T05:42:44.868Z,8.30
2023-11-27T05:43:46.454Z,9.30
2023-11-27T05:44:48.741Z,9.00
2023-11-27T05:45:50.145Z,8.60
2023-11-27T05:46:51.815Z,8.60
2023-11-27T05:47:53.371Z,8.73
2023-11-27T05:48:54.847Z,8.27
2023-11-27T05:49:57.138Z,8.13
2023-11-27T05:50:58.714Z,7.47
2023-11-27T05:52:00.355Z,7.50
2023-11-27T05:53:02.056Z,7.87
2023-11-27T05:54:03.582Z,8.60
2023-11-27T05:55:05.315Z,7.77
2023-11-27T05:56:07.042Z,8.20
2023-11-27T05:57:09.425Z,7.70
2023-11-27T05:58:10.963Z,8.03
2023-11-27T05:59:12.480Z,7.90
2023-11-27T06:00:16.503Z,8.27
2023-11-27T06:01:18.676Z,9.03
2023-11-27T06:02:20.279Z,8.97
2023-11-27T06:03:21.729Z,8.73
2023-11-27T06:04:23.187Z,8.50
2023-11-27T06:05:24.820Z,7.77
2023-11-27T06:06:26.523Z,7.73
2023-11-27T06:07:28.118Z,7.83
2023-11-27T06:08:29.723Z,7.70
2023-11-27T06:09:32.063Z,6.90
2023-11-27T06:10:33.775Z,6.90
2023-11-27T06:11:35.513Z,6.87
2023-11-27T06:12:37.028Z,7.27
2023-11-27T06:13:38.679Z,6.87
2023-11-27T06:14:41.002Z,7.27
2023-11-27T06:15:48.058Z,7.10
2023-11-27T06:16:49.864Z,6.93
2023-11-27T06:17:51.327Z,6.70
2023-11-27T06:18:53.721Z,7.17
2023-11-27T06:19:55.156Z,7.37
2023-11-27T06:20:56.615Z,7.40
2023-11-27T06:22:00.066Z,7.10
2023-11-27T06:23:01.664Z,6.70
2023-11-27T06:24:03.250Z,6.33
2023-11-27T06:25:05.333Z,6.60
2023-11-27T06:26:06.948Z,7.13
2023-11-27T06:27:08.516Z,7.40
2023-11-27T06:28:16.678Z,7.63
2023-11-27T06:29:18.768Z,6.87
2023-11-27T06:30:20.576Z,7.37
2023-11-27T06:31:22.181Z,6.47
2023-11-27T06:32:23.746Z,6.90
2023-11-27T06:33:25.420Z,6.50
2023-11-27T06:34:26.978Z,7.50
2023-11-27T06:35:28.569Z,7.53
2023-11-27T06:36:30.022Z,7.07
2023-11-27T06:37:32.257Z,6.90
2023-11-27T06:38:33.933Z,7.03
2023-11-27T06:39:37.123Z,6.70
2023-11-27T06:40:45.661Z,6.97
2023-11-27T06:41:49.426Z,6.53
2023-11-27T06:42:51.146Z,6.57
2023-11-27T06:43:53.236Z,6.10
2023-11-27T06:44:55.503Z,6.37
2023-11-27T06:45:57.290Z,7.03
2023-11-27T06:46:59.473Z,6.30
2023-11-27T06:48:00.984Z,6.63
2023-11-27T06:49:05.491Z,6.53
2023-11-27T06:50:07.094Z,6.63
2023-11-27T06:51:09.660Z,7.83
2023-11-27T06:52:11.142Z,6.90
2023-11-27T06:53:13.197Z,6.83
2023-11-27T06:54:14.594Z,6.60
2023-11-27T06:55:16.276Z,6.97
2023-11-27T06:56:17.864Z,6.80
2023-11-27T06:57:19.405Z,6.37
2023-11-27T06:58:20.831Z,6.60
2023-11-27T06:59:22.666Z,6.57
2023-11-27T07:00:24.533Z,7.00
2023-11-27T07:01:29.616Z,6.07
2023-11-27T07:02:31.760Z,6.03
2023-11-27T07:03:33.435Z,5.87
2023-11-27T07:04:34.957Z,7.43
2023-11-27T07:05:36.435Z,6.40
2023-11-27T07:06:38.549Z,6.80
2023-11-27T07:07:39.976Z,6.77
2023-11-27T07:08:41.560Z,6.57
2023-11-27T07:09:43.004Z,6.50
2023-11-27T07:10:44.435Z,6.27
2023-11-27T07:11:48.050Z,6.20
2023-11-27T07:12:49.448Z,6.00
2023-11-27T07:13:52.119Z,6.80
2023-11-27T07:14:53.740Z,6.40
2023-11-27T07:15:55.353Z,6.13
2023-11-27T07:16:57.034Z,6.60
2023-11-27T07:18:10.086Z,6.20
2023-11-27T07:19:19.158Z,6.53
2023-11-27T07:20:20.814Z,6.33
2023-11-27T07:21:22.233Z,6.43
2023-11-27T07:22:23.662Z,6.30
2023-11-27T07:23:25.813Z,6.20
2023-11-27T07:24:27.188Z,7.23
2023-11-27T07:25:29.749Z,6.37
2023-11-27T07:26:31.381Z,7.10
2023-11-27T07:27:32.857Z,6.30
2023-11-27T07:28:34.281Z,5.87
2023-11-27T07:29:35.745Z,6.20
2023-11-27T07:30:37.891Z,6.43
2023-11-27T07:31:39.619Z,6.30
2023-11-27T07:32:41.771Z,5.87
2023-11-27T07:33:46.390Z,6.30
2023-11-27T07:34:47.791Z,5.63
2023-11-27T07:35:51.289Z,6.80
2023-11-27T07:36:52.858Z,6.30
2023-11-27T07:37:54.296Z,6.50
2023-11-27T07:38:56.911Z,6.10
2023-11-27T07:39:58.469Z,6.90
2023-11-27T07:41:00.277Z,6.83
2023-11-27T07:42:01.810Z,6.53
2023-11-27T07:43:04.163Z,6.77
2023-11-27T07:44:05.783Z,7.03
2023-11-27T07:45:08.214Z,6.67
2023-11-27T07:46:13.292Z,6.67
2023-11-27T07:47:14.847Z,7.30
2023-11-27T07:48:16.449Z,6.83
2023-11-27T07:49:19.958Z,6.80
2023-11-27T07:50:21.572Z,6.93
2023-11-27T07:51:23.101Z,6.90
2023-11-27T07:52:24.506Z,7.70
2023-11-27T07:53:25.920Z,8.60
2023-11-27T07:54:27.388Z,8.20
2023-11-27T07:55:29.357Z,8.03
2023-11-27T07:56:32.010Z,7.60
2023-11-27T07:57:34.072Z,7.70
2023-11-27T07:58:37.938Z,8.43
2023-11-27T07:59:39.500Z,7.53
2023-11-27T08:00:41.047Z,7.17
2023-11-27T08:01:43.483Z,6.80
2023-11-27T08:02:45.368Z,7.63
2023-11-27T08:03:47.218Z,7.50
2023-11-27T08:04:48.944Z,7.53
2023-11-27T08:05:51.520Z,7.30
2023-11-27T08:06:53.097Z,6.80
2023-11-27T08:07:54.555Z,7.93
2023-11-27T08:08:57.049Z,7.27
2023-11-27T08:09:58.653Z,6.87
2023-11-27T08:11:00.152Z,7.37
2023-11-27T08:12:01.704Z,6.90
2023-11-27T08:13:03.899Z,7.77
2023-11-27T08:14:05.864Z,7.70
2023-11-27T08:15:07.677Z,6.80
2023-11-27T08:16:09.406Z,7.83
2023-11-27T08:17:11.060Z,7.57
2023-11-27T08:18:13.396Z,6.30
2023-11-27T08:19:18.050Z,6.87
2023-11-27T08:20:19.601Z,7.07
2023-11-27T08:21:21.053Z,7.00
2023-11-27T08:22:23.194Z,6.63
2023-11-27T08:23:25.281Z,6.23
2023-11-27T08:24:26.739Z,6.17
2023-11-27T08:25:28.513Z,5.63
2023-11-27T08:26:40.382Z,5.87
2023-11-27T08:27:43.886Z,5.87
2023-11-27T08:28:46.463Z,5.90
2023-11-27T08:29:48.619Z,5.83
2023-11-27T08:30:50.116Z,5.70
2023-11-27T08:31:53.512Z,5.90
2023-11-27T08:32:55.144Z,5.60
2023-11-27T08:33:56.765Z,5.83
2023-11-27T08:34:58.306Z,5.33
2023-11-27T08:36:03.814Z,5.67
2023-11-27T08:37:07.558Z,5.83
2023-11-27T08:38:09.404Z,6.03
2023-11-27T08:39:12.899Z,5.87
2023-11-27T08:40:14.773Z,5.33
2023-11-27T08:41:16.350Z,6.27
2023-11-27T08:42:17.864Z,5.50
2023-11-27T08:43:19.299Z,5.60
2023-11-27T08:44:20.740Z,6.53
2023-11-27T08:45:22.134Z,5.60
2023-11-27T08:46:23.698Z,5.53
2023-11-27T08:47:25.986Z,5.43
2023-11-27T08:48:28.299Z,6.10
2023-11-27T08:49:29.724Z,5.47
2023-11-27T08:50:36.226Z,5.20
2023-11-27T08:51:38.053Z,5.10
2023-11-27T08:52:39.507Z,5.37
2023-11-27T08:53:42.141Z,5.67
2023-11-27T08:54:43.704Z,5.40
2023-11-27T08:55:45.191Z,5.50
2023-11-27T08:56:48.059Z,5.70
2023-11-27T08:57:49.599Z,5.67
2023-11-27T08:58:50.947Z,5.30
2023-11-27T08:59:52.311Z,5.90
2023-11-27T09:00:53.718Z,5.57
2023-11-27T09:01:55.314Z,6.00
2023-11-27T09:03:01.213Z,6.30
2023-11-27T09:04:03.980Z,5.77
2023-11-27T09:05:06.868Z,6.07
2023-11-27T09:06:08.422Z,5.90
2023-11-27T09:07:13.032Z,5.80
2023-11-27T09:08:14.991Z,5.80
2023-11-27T09:09:16.927Z,5.73
2023-11-27T09:10:18.413Z,5.63
2023-11-27T09:11:22.890Z,6.47
2023-11-27T09:12:25.017Z,5.17
2023-11-27T09:13:26.404Z,5.20
2023-11-27T09:14:27.862Z,5.50
2023-11-27T09:15:29.246Z,5.07
2023-11-27T09:16:30.690Z,5.50
2023-11-27T09:17:32.273Z,5.03
2023-11-27T09:18:33.940Z,4.87
2023-11-27T09:19:35.559Z,5.20
2023-11-27T09:20:37.042Z,5.17
2023-11-27T09:21:38.686Z,5.07
2023-11-27T09:22:40.875Z,5.23
2023-11-27T09:23:42.921Z,5.37
2023-11-27T09:24:45.264Z,5.27
2023-11-27T09:25:47.329Z,4.43
2023-11-27T09:26:48.797Z,4.73
2023-11-27T09:27:50.187Z,5.00
2023-11-27T09:28:51.540Z,5.33
2023-11-27T09:29:52.920Z,5.20
2023-11-27T09:30:56.143Z,5.03
2023-11-27T09:31:57.699Z,4.80
2023-11-27T09:32:59.130Z,4.60
2023-11-27T09:34:00.587Z,4.77
2023-11-27T09:35:13.544Z,4.77
2023-11-27T09:36:16.639Z,4.77
2023-11-27T09:37:18.184Z,5.00
2023-11-27T09:38:19.659Z,4.50
2023-11-27T09:39:21.156Z,5.00
2023-11-27T09:40:23.070Z,5.10
2023-11-27T09:41:24.700Z,4.73
2023-11-27T09:42:38.848Z,4.97
2023-11-27T09:43:46.764Z,5.80
2023-11-27T09:44:48.406Z,5.03
2023-11-27T09:45:50.219Z,6.13
2023-11-27T09:46:54.315Z,5.57
2023-11-27T09:47:55.718Z,5.10
2023-11-27T09:48:58.809Z,5.50
2023-11-27T09:50:01.736Z,5.37
2023-11-27T09:51:07.488Z,5.30
2023-11-27T09:52:13.624Z,4.70
2023-11-27T09:53:17.776Z,4.80
2023-11-27T09:54:22.280Z,4.53
2023-11-27T09:55:24.378Z,4.60
2023-11-27T09:56:28.875Z,5.40
2023-11-27T09:57:33.135Z,4.53
2023-11-27T09:58:38.152Z,4.90
2023-11-27T09:59:40.393Z,4.80
2023-11-27T10:00:43.565Z,4.50
2023-11-27T10:01:45.338Z,4.53
2023-11-27T10:02:48.653Z,5.07
2023-11-27T10:03:53.232Z,5.17
2023-11-27T10:04:54.845Z,4.80
2023-11-27T10:05:58.869Z,5.30
2023-11-27T10:07:00.400Z,4.87
2023-11-27T10:08:04.476Z,5.17
2023-11-27T10:09:09.096Z,4.30
2023-11-27T10:10:11.043Z,4.73
2023-11-27T10:11:12.526Z,3.77
2023-11-27T10:12:13.984Z,4.10
2023-11-27T10:14:36.855Z,4.57
2023-11-27T10:15:39.924Z,4.20
2023-11-27T10:16:42.419Z,4.40
2023-11-27T10:17:44.510Z,4.23
2023-11-27T10:18:50.190Z,4.27
2023-11-27T10:19:53.892Z,4.00
2023-11-27T10:20:56.089Z,3.83
2023-11-27T10:21:58.152Z,3.73
2023-11-27T10:23:00.019Z,4.37
2023-11-27T10:24:11.776Z,3.87
2023-11-27T10:25:16.000Z,4.60
2023-11-27T10:26:20.651Z,3.97
2023-11-27T10:27:24.424Z,3.70
2023-11-27T10:28:40.582Z,4.03
2023-11-27T10:29:41.998Z,3.97
2023-11-27T10:30:43.586Z,3.90
2023-11-27T10:31:47.107Z,5.20
2023-11-27T10:32:48.969Z,4.47
2023-11-27T10:33:50.400Z,4.00
2023-11-27T10:34:53.381Z,4.20
2023-11-27T10:35:56.972Z,4.10
2023-11-27T10:37:03.165Z,3.50
2023-11-27T10:38:05.968Z,3.80
2023-11-27T10:39:10.152Z,4.23
2023-11-27T10:40:15.705Z,3.50
2023-11-27T10:41:17.443Z,3.70
2023-11-27T10:42:19.406Z,3.63
2023-11-27T10:43:23.054Z,3.30
2023-11-27T10:44:26.409Z,3.57
2023-11-27T10:45:31.772Z,3.10
2023-11-27T10:46:36.622Z,3.70
2023-11-27T10:47:38.699Z,3.53
2023-11-27T10:48:44.447Z,3.30
2023-11-27T10:49:47.434Z,3.50
2023-11-27T10:50:49.931Z,3.63
2023-11-27T10:51:53.788Z,3.40
2023-11-27T10:52:57.156Z,3.80
2023-11-27T10:53:59.341Z,4.27
2023-11-27T10:55:01.760Z,5.97
2023-11-27T10:56:06.517Z,5.83
2023-11-27T10:57:08.644Z,5.00
2023-11-27T10:58:11.570Z,4.60
2023-11-27T10:59:14.755Z,3.97
2023-11-27T11:00:31.494Z,4.27
2023-11-27T11:01:36.705Z,3.73
2023-11-27T11:02:40.773Z,3.83
2023-11-27T11:03:44.480Z,3.97
2023-11-27T11:04:51.563Z,3.43
2023-11-27T11:05:55.086Z,4.43
2023-11-27T11:06:58.332Z,4.93
2023-11-27T11:08:00.467Z,4.80
2023-11-27T11:09:02.674Z,7.10
2023-11-27T11:10:10.415Z,8.17
2023-11-27T11:11:12.600Z,4.70
2023-11-27T11:12:15.266Z,4.70
2023-11-27T11:13:18.506Z,4.30
2023-11-27T11:14:23.641Z,4.97
2023-11-27T11:15:45.759Z,6.77
2023-11-27T11:16:54.532Z,4.40
2023-11-27T11:18:01.825Z,5.40
2023-11-27T11:19:09.349Z,4.00
2023-11-27T11:20:24.529Z,3.70
2023-11-27T11:21:28.785Z,3.63
2023-11-27T11:22:35.436Z,3.33
2023-11-27T11:23:43.030Z,3.80
2023-11-27T11:25:05.074Z,4.20
2023-11-27T11:26:34.125Z,3.70
2023-11-27T11:27:46.765Z,2.77
2023-11-27T11:28:50.537Z,2.93
2023-11-27T11:29:52.831Z,3.00
2023-11-27T11:31:10.184Z,2.90
2023-11-27T11:32:17.848Z,2.70
2023-11-27T11:33:20.062Z,2.90
2023-11-27T11:34:23.936Z,2.53
2023-11-27T11:35:28.633Z,2.70
2023-11-27T11:36:33.954Z,2.80
2023-11-27T11:37:35.517Z,2.97
2023-11-27T11:38:36.966Z,2.53
2023-11-27T11:39:42.063Z,2.83
2023-11-27T11:40:48.707Z,2.57
2023-11-27T11:41:56.750Z,2.53
2023-11-27T11:42:58.423Z,2.97
2023-11-27T11:43:59.930Z,3.03
2023-11-27T11:45:07.726Z,3.10
2023-11-27T11:46:18.716Z,2.60
2023-11-27T11:47:30.250Z,2.77
2023-11-27T11:48:38.176Z,3.20
2023-11-27T11:49:39.627Z,3.20
2023-11-27T11:50:44.370Z,2.90
2023-11-27T11:52:09.415Z,2.80
2023-11-27T11:53:23.133Z,3.00
2023-11-27T11:54:31.026Z,3.60
2023-11-27T11:55:33.994Z,3.10
2023-11-27T11:56:36.081Z,2.97
2023-11-27T11:57:39.728Z,3.57
2023-11-27T11:58:41.181Z,3.10
2023-11-27T11:59:45.893Z,2.80
2023-11-27T12:00:47.668Z,3.10
2023-11-27T12:01:49.834Z,3.00
2023-11-27T12:02:55.842Z,3.00
2023-11-27T12:03:59.325Z,2.93
2023-11-27T12:05:01.004Z,2.67
2023-11-27T12:06:14.801Z,2.97
2023-11-27T12:07:16.451Z,3.00
2023-11-27T12:08:18.471Z,3.27
2023-11-27T12:09:19.882Z,3.13
2023-11-27T12:10:21.354Z,3.20
2023-11-27T12:11:24.376Z,3.00
2023-11-27T12:12:28.348Z,2.97
2023-11-27T12:13:36.532Z,2.50
2023-11-27T12:14:39.304Z,2.97
2023-11-27T12:15:40.787Z,3.20
2023-11-27T12:16:43.272Z,3.10
2023-11-27T12:17:51.524Z,3.43
2023-11-27T12:18:53.313Z,4.20
2023-11-27T12:19:54.918Z,3.30
2023-11-27T12:20:57.366Z,2.90
2023-11-27T12:22:00.513Z,2.97
2023-11-27T12:23:01.941Z,2.90
2023-11-27T12:24:03.450Z,3.10
2023-11-27T12:25:05.169Z,3.37
2023-11-27T12:26:11.232Z,3.10
2023-11-27T12:27:12.718Z,3.17
2023-11-27T12:28:14.340Z,2.93
2023-11-27T12:29:17.371Z,3.10
2023-11-27T12:30:21.659Z,2.90
2023-11-27T12:31:23.955Z,3.20
2023-11-27T12:32:26.306Z,3.33
2023-11-27T12:33:28.826Z,2.93
2023-11-27T12:34:30.292Z,3.50
2023-11-27T12:35:34.829Z,3.30
2023-11-27T12:36:37.820Z,3.10
2023-11-27T12:37:43.246Z,3.20
2023-11-27T12:38:44.832Z,2.77
2023-11-27T12:39:53.620Z,3.30
2023-11-27T12:40:55.207Z,3.03
2023-11-27T12:42:05.640Z,3.27
2023-11-27T12:43:07.768Z,3.20
2023-11-27T12:44:20.311Z,2.93
2023-11-27T12:45:28.713Z,2.93
2023-11-27T12:46:31.105Z,3.30
2023-11-27T12:47:35.961Z,3.10
2023-11-27T12:48:39.303Z,3.30
2023-11-27T12:49:42.540Z,2.83
2023-11-27T12:50:44.119Z,3.47
2023-11-27T12:51:46.257Z,3.20
2023-11-27T12:52:48.506Z,3.33
2023-11-27T12:53:51.497Z,2.83
2023-11-27T12:54:56.067Z,3.20
2023-11-27T12:55:57.665Z,3.30
2023-11-27T12:57:01.535Z,2.70
2023-11-27T12:58:04.679Z,3.20
2023-11-27T12:59:06.090Z,3.70
2023-11-27T13:00:07.820Z,3.43
2023-11-27T13:01:12.837Z,3.33
2023-11-27T13:02:18.180Z,3.20
2023-11-27T13:03:23.774Z,3.30
2023-11-27T13:04:33.375Z,3.23
2023-11-27T13:05:34.962Z,3.80
2023-11-27T13:06:36.450Z,3.23
2023-11-27T13:07:37.864Z,4.00
2023-11-27T13:08:39.325Z,3.00
2023-11-27T13:09:40.809Z,3.13
2023-11-27T13:10:49.080Z,3.70
2023-11-27T13:11:50.797Z,3.43
2023-11-27T13:12:55.720Z,3.10
2023-11-27T13:13:57.183Z,3.63
2023-11-27T13:14:58.702Z,2.90
2023-11-27T13:16:04.252Z,3.30
2023-11-27T13:17:08.318Z,3.53
2023-11-27T13:18:16.879Z,3.43
2023-11-27T13:19:19.014Z,3.80
2023-11-27T13:20:24.131Z,3.50
2023-11-27T13:21:33.408Z,3.67
2023-11-27T13:22:34.888Z,3.63
2023-11-27T13:23:39.127Z,3.33
2023-11-27T13:24:40.652Z,3.23
2023-11-27T13:25:42.185Z,16.50
2023-11-27T13:26:43.658Z,8.33
2023-11-27T13:27:48.035Z,7.30
2023-11-27T13:28:49.455Z,5.83
2023-11-27T13:29:53.977Z,4.27
2023-11-27T13:31:00.985Z,8.20
2023-11-27T13:32:02.882Z,4.87
2023-11-27T13:33:14.175Z,4.43
2023-11-27T13:34:33.869Z,4.07
2023-11-27T13:35:35.609Z,3.30
2023-11-27T13:36:43.174Z,3.13
2023-11-27T13:37:46.656Z,3.70
2023-11-27T13:38:48.834Z,4.87
2023-11-27T13:39:58.664Z,10.13
2023-11-27T13:41:00.361Z,5.90
2023-11-27T13:42:02.095Z,3.67
2023-11-27T13:43:14.535Z,3.50
2023-11-27T13:44:18.363Z,3.27
2023-11-27T13:45:26.364Z,3.33
2023-11-27T13:46:27.831Z,4.37
2023-11-27T13:47:30.581Z,3.53
2023-11-27T13:48:34.659Z,3.50
2023-11-27T13:49:36.647Z,3.40
2023-11-27T13:50:38.825Z,3.37
2023-11-27T13:51:40.311Z,4.07
2023-11-27T13:52:43.419Z,4.27
2023-11-27T13:53:45.559Z,4.33
2023-11-27T13:54:54.671Z,3.90
2023-11-27T13:55:57.460Z,2.87
2023-11-27T13:57:02.001Z,2.90